There are no active watches, warnings or advisories



For GOD so loved the world that HE gave HIS one and only SON, that whoever believes in HIM shall not perish but have eternal life.


Thunder radar more information blitzortung!


Rain radar more information rain snow radar



Nearby METAR Reports

   
SBAE - Bauru, Brazil
Updated: Dec 31 1969 7:00 pm
NOT Current
  
  
   Wind: Calm
Wind: Calm
KMCO - Orlando, Florida
Updated: Dec 16 2018 4:53 am
Fog, Overcast  
Fog, Overcast  
   Wind: Calm
Wind: Calm
Temperature: 57.2°F
Dew Point: 57.2°F
Humidity: 100%
Barometer: 30.09 inHg
Clouds: Overcast
Visibility: 1 mi
Cloud details: Mostly Cloudy 300 ft,
Overcast 5000 ft
KMCO 160953Z 00000KT 1/4SM R35L/1600V1800FT FG BKN003 OVC050 14/14 A3009 RMK AO2 SLP188 T01440144
KJHW - Jamestown, NY
Updated: Dec 16 2018 4:56 am
Light Rain, Overcast  
Light Rain, Overcast  
   Wind: East 5.8 mph
Wind: East 5.8 mph
Temperature: 35.6°F
Wind Chill: 30.2°F
Dew Point: 28.4°F
Humidity: 75%
Barometer: 29.98 inHg
Clouds: Overcast
Visibility: 10 mi
Cloud details: Mostly Cloudy 8000 ft,
Overcast 9000 ft
KJHW 160956Z AUTO 09005KT 10SM -RA BKN080 OVC090 02/M02 A2998 RMK AO2 RAB56 SLP170 P0000 T00221022 FZRANO
KSAT - San Antinio, TX
Updated: Dec 16 2018 4:51 am
Few Clouds  
Few Clouds  
   Wind: NW 3.5 mph
Wind: NW 3.5 mph
Temperature: 35.6°F
Wind Chill: 33.8°F
Dew Point: 26.6°F
Humidity: 70%
Barometer: 30.25 inHg
Clouds: Few Clouds
Visibility: 10 mi
Cloud details: Few Clouds 25000 ft
KSAT 160951Z 31003KT 10SM FEW250 02/M03 A3025 RMK AO2 SLP234 T00221028
KPHX - Carefree, AZ
Updated: Dec 16 2018 4:51 am
Mostly Cloudy  
Mostly Cloudy  
   Wind: ESE 5.8 mph
Wind: ESE 5.8 mph
Temperature: 51.8°F
Dew Point: 28.4°F
Humidity: 41%
Barometer: 30.12 inHg
Clouds: Mostly Cloudy
Visibility: 10 mi
Cloud details: Partly Cloudy 16000 ft,
Mostly Cloudy 18000 ft
KPHX 160951Z 11005KT 10SM SCT160 BKN180 11/M02 A3012 RMK AO2 SLP192 T01111022
 

Script developed by  Saratoga-weather.org Adapted for the template by  Weerstation Leuven